Time;durP1;ratioP1;P1;durP2;ratioP2;P2;SDS_P1;SDS_P2;PMS_P1;PMS_P2;Temp;Humidity;BMP_temperature;BMP_pressure;BME280_temperature;BME280_humidity;BME280_pressure;Samples;Min_cycle;Max_cycle;Signal;HPM_P1;HPM_P2
2023/08/03 00:01:06;;;;;;;;;;;23.20;54.00;;;22.43;52.80;99112.81;12255250;19;19927;-83
2023/08/03 00:05:08;;;;;;;;;;;23.20;54.00;;;22.29;52.84;99096.00;12254780;19;20333;-83
2023/08/03 00:09:10;;;;;;;;;;;23.10;54.10;;;22.29;52.94;99089.88;12254404;19;20650;-83
2023/08/03 00:13:12;;;;;;;;;;;23.10;54.00;;;22.31;53.09;99109.13;12251374;19;19918;-84
2023/08/03 00:17:13;;;;;;;;;;;23.00;53.90;;;22.24;53.03;99106.41;12249781;19;19947;-83
2023/08/03 00:21:14;;;;;;;;;;;23.00;53.90;;;22.23;52.95;99103.97;12254092;19;19975;-83
2023/08/03 00:25:16;;;;;;;;;;;23.00;54.10;;;22.19;52.84;99111.50;12252009;19;20393;-83
2023/08/03 00:29:17;;;;;;;;;;;23.00;54.00;;;22.13;53.16;99116.78;12250225;19;19998;-84
2023/08/03 00:33:19;;;;;;;;;;;22.90;54.40;;;22.09;53.06;99127.81;12250339;19;19938;-83
2023/08/03 00:37:20;;;;;;;;;;;22.80;53.90;;;22.03;52.87;99139.22;12248873;19;20333;-83
2023/08/03 00:41:22;;;;;;;;;;;22.80;54.00;;;21.84;53.29;99108.06;12251685;19;19967;-83
2023/08/03 00:45:24;;;;;;;;;;;22.70;53.90;;;21.86;52.92;99116.69;12251703;19;20189;-84
2023/08/03 00:49:28;;;;;;;;;;;22.70;53.90;;;21.75;52.78;99110.09;12251995;19;19923;-83
2023/08/03 00:53:30;;;;;;;;;;;22.60;53.90;;;21.75;53.26;99103.94;12250898;19;19915;-84
2023/08/03 00:57:31;;;;;;;;;;;22.50;54.00;;;21.74;52.93;99123.56;12248648;19;19953;-83
2023/08/03 01:01:33;;;;;;;;;;;22.40;53.90;;;21.67;53.22;99120.06;12249816;19;19952;-84
2023/08/03 01:05:35;;;;;;;;;;;22.40;54.00;;;21.63;52.90;99139.06;12242481;19;19921;-83
2023/08/03 01:09:37;;;;;;;;;;;22.30;54.10;;;21.65;52.98;99136.19;12249056;19;19918;-83
2023/08/03 01:13:39;;;;;;;;;;;22.30;54.10;;;21.56;52.89;99134.72;12249476;19;20358;-84
2023/08/03 01:17:40;;;;;;;;;;;22.30;54.30;;;21.59;52.98;99129.00;12245787;19;19978;-84
2023/08/03 01:21:44;;;;;;;;;;;22.30;54.50;;;21.60;53.43;99142.09;12248890;19;20368;-84
2023/08/03 01:25:46;;;;;;;;;;;22.30;54.40;;;21.48;53.23;99126.91;12246825;19;19939;-85
2023/08/03 01:29:47;;;;;;;;;;;22.30;54.40;;;21.52;53.14;99134.28;12248577;19;19948;-84
2023/08/03 01:33:50;;;;;;;;;;;22.30;54.50;;;21.50;53.29;99138.97;12246270;19;20336;-82
2023/08/03 01:37:51;;;;;;;;;;;22.30;54.50;;;21.52;53.26;99144.06;12245239;19;19918;-84
2023/08/03 01:41:55;;;;;;;;;;;22.30;54.60;;;21.52;53.27;99163.50;12250859;19;20385;-83
2023/08/03 01:45:56;;;;;;;;;;;22.20;54.40;;;21.50;53.54;99175.34;12261169;19;19919;-83
2023/08/03 01:49:57;;;;;;;;;;;22.20;54.60;;;21.45;53.38;99173.25;12263826;19;20305;-84
2023/08/03 01:53:59;;;;;;;;;;;22.20;54.60;;;21.35;53.43;99170.88;12262780;19;19992;-83
2023/08/03 01:58:01;;;;;;;;;;;22.20;54.70;;;21.50;53.59;99205.38;12254695;19;19919;-83
2023/08/03 02:02:03;;;;;;;;;;;22.20;54.90;;;21.48;53.64;99201.25;12259006;19;19945;-83
2023/08/03 02:06:04;;;;;;;;;;;22.20;55.20;;;21.42;53.63;99206.31;12260698;19;19919;-84
2023/08/03 02:10:06;;;;;;;;;;;22.20;55.30;;;21.42;53.69;99206.31;12260578;19;19931;-84
2023/08/03 02:14:08;;;;;;;;;;;22.10;55.80;;;21.39;53.54;99204.06;12259269;19;19911;-84
2023/08/03 02:18:10;;;;;;;;;;;22.10;55.00;;;21.38;53.75;99213.03;12254938;19;20357;-84
2023/08/03 02:22:11;;;;;;;;;;;22.10;55.30;;;21.32;53.55;99213.78;12262503;19;19996;-83
2023/08/03 02:26:13;;;;;;;;;;;22.10;55.10;;;21.31;53.51;99213.97;12259033;19;19915;-84
2023/08/03 02:30:14;;;;;;;;;;;22.10;55.00;;;21.34;53.88;99224.22;12262490;19;19915;-83
2023/08/03 02:34:17;;;;;;;;;;;22.10;55.30;;;21.31;53.72;99214.78;12259291;19;19925;-83
2023/08/03 02:38:19;;;;;;;;;;;22.00;55.10;;;21.31;53.64;99213.97;12255156;19;20394;-82
2023/08/03 02:42:22;;;;;;;;;;;22.10;55.10;;;21.32;53.99;99227.03;12262144;19;19930;-83
2023/08/03 02:46:24;;;;;;;;;;;22.00;55.00;;;21.34;53.63;99237.50;12259720;19;19911;-83
2023/08/03 02:50:26;;;;;;;;;;;22.10;55.20;;;21.33;53.87;99218.09;12260210;19;19974;-83
2023/08/03 02:54:32;;;;;;;;;;;22.10;55.20;;;21.17;53.76;99189.97;12255287;19;20335;-82
2023/08/03 02:58:34;;;;;;;;;;;22.10;56.00;;;21.31;54.00;99225.41;12254115;19;19913;-82
2023/08/03 03:02:40;;;;;;;;;;;22.00;55.70;;;21.27;54.16;99210.84;12258214;19;19993;-82
2023/08/03 03:06:46;;;;;;;;;;;22.00;55.40;;;21.26;53.91;99211.06;12255159;19;19927;-82
2023/08/03 03:10:49;;;;;;;;;;;22.00;55.70;;;21.25;53.80;99212.88;12258231;19;19936;-82
2023/08/03 03:14:51;;;;;;;;;;;22.00;55.90;;;21.11;54.14;99197.84;12254427;19;19925;-83
2023/08/03 03:18:53;;;;;;;;;;;22.00;57.10;;;21.13;54.19;99214.41;12257114;19;20356;-83
2023/08/03 03:22:55;;;;;;;;;;;22.00;56.20;;;21.12;54.30;99210.94;12258271;19;19938;-82
2023/08/03 03:26:57;;;;;;;;;;;21.90;56.30;;;21.09;54.04;99214.00;12253755;19;19929;-83
2023/08/03 03:30:59;;;;;;;;;;;21.90;55.80;;;21.07;54.40;99201.91;12257902;19;19922;-82
2023/08/03 03:35:02;;;;;;;;;;;21.80;55.50;;;21.09;54.08;99203.38;12252512;19;19957;-82
2023/08/03 03:39:05;;;;;;;;;;;21.90;55.60;;;21.18;54.14;99214.69;12256324;19;19921;-83
2023/08/03 03:43:08;;;;;;;;;;;21.90;55.60;;;21.14;54.22;99210.75;12256660;19;19911;-83
2023/08/03 03:47:09;;;;;;;;;;;21.90;57.20;;;21.05;54.27;99201.28;12255202;19;19919;-82
2023/08/03 03:51:18;;;;;;;;;;;21.90;56.30;;;21.13;54.22;99217.88;12256033;19;19918;-82
2023/08/03 03:55:22;;;;;;;;;;;21.90;56.10;;;21.08;53.94;99214.16;12254965;19;20352;-82
2023/08/03 03:59:29;;;;;;;;;;;21.80;56.50;;;21.07;53.99;99212.53;12256184;19;19919;-82
2023/08/03 04:03:30;;;;;;;;;;;21.80;56.00;;;20.98;54.28;99201.19;12252736;19;20322;-83
2023/08/03 04:07:37;;;;;;;;;;;21.80;56.10;;;21.00;54.64;99204.50;12250682;19;19949;-83
2023/08/03 04:11:38;;;;;;;;;;;21.80;56.20;;;20.94;54.19;99197.28;12247680;19;19982;-83
2023/08/03 04:15:39;;;;;;;;;;;21.80;55.90;;;21.03;54.44;99216.56;12253624;19;20332;-83
2023/08/03 04:19:42;;;;;;;;;;;21.80;56.00;;;20.91;54.42;99198.50;12256908;19;20336;-85
2023/08/03 04:23:43;;;;;;;;;;;21.80;55.80;;;20.87;54.29;99199.88;12257684;19;19970;-85
2023/08/03 04:27:46;;;;;;;;;;;21.80;55.90;;;20.95;54.30;99210.38;12250181;19;19912;-85
2023/08/03 04:31:50;;;;;;;;;;;21.70;56.30;;;20.82;54.61;99180.22;12253458;19;19923;-86
2023/08/03 04:35:52;;;;;;;;;;;21.80;55.90;;;20.98;54.33;99207.34;12256454;19;19918;-85
2023/08/03 04:39:58;;;;;;;;;;;21.80;56.00;;;21.02;54.50;99210.44;12256469;19;19914;-85
2023/08/03 04:44:00;;;;;;;;;;;21.80;55.80;;;20.92;54.73;99201.97;12259073;19;20349;-85
2023/08/03 04:48:05;;;;;;;;;;;21.80;56.80;;;20.94;54.58;99199.94;12252535;19;19919;-86
2023/08/03 04:52:08;;;;;;;;;;;21.80;56.00;;;20.73;54.67;99176.88;12258180;19;19914;-86
2023/08/03 04:56:09;;;;;;;;;;;21.80;56.00;;;20.93;54.77;99195.66;12255182;19;20008;-86
2023/08/03 05:00:11;;;;;;;;;;;21.80;56.40;;;20.86;54.69;99195.59;12256080;19;19914;-85
2023/08/03 05:04:13;;;;;;;;;;;21.80;56.60;;;20.82;54.90;99182.88;12258550;19;19926;-85
2023/08/03 05:08:14;;;;;;;;;;;21.80;56.50;;;21.02;54.66;99202.47;12251953;19;19978;-86
2023/08/03 05:12:16;;;;;;;;;;;21.80;56.20;;;21.07;54.88;99210.69;12261812;19;19983;-86
2023/08/03 05:16:24;;;;;;;;;;;21.80;56.40;;;21.09;54.64;99205.19;12261696;19;19943;-87
2023/08/03 05:20:25;;;;;;;;;;;21.90;56.00;;;21.02;54.92;99194.50;12263477;19;19918;-86
2023/08/03 05:24:27;;;;;;;;;;;21.90;56.10;;;21.05;54.53;99194.13;12261195;19;19923;-86
2023/08/03 05:28:28;;;;;;;;;;;21.90;56.10;;;20.84;55.00;99162.28;12259014;19;19939;-86
2023/08/03 05:32:30;;;;;;;;;;;21.90;56.20;;;21.13;54.78;99199.31;12261751;19;19940;-86
2023/08/03 05:36:31;;;;;;;;;;;21.90;56.60;;;21.15;54.66;99202.59;12254940;19;19915;-86
2023/08/03 05:40:33;;;;;;;;;;;21.90;56.10;;;20.93;54.76;99169.13;12260405;19;19943;-85
2023/08/03 05:44:35;;;;;;;;;;;22.00;56.40;;;21.19;55.20;99211.00;12259504;19;19926;-86
2023/08/03 05:48:36;;;;;;;;;;;22.00;56.30;;;21.24;55.00;99207.78;12257324;19;19930;-85
2023/08/03 05:52:38;;;;;;;;;;;22.10;56.00;;;21.11;55.05;99161.50;12258356;19;19915;-85
2023/08/03 05:56:39;;;;;;;;;;;22.10;56.60;;;21.37;54.82;99199.91;12256518;19;19915;-87
2023/08/03 06:00:42;;;;;;;;;;;22.20;56.40;;;21.42;55.28;99195.72;12256059;19;19992;-83
2023/08/03 06:04:43;;;;;;;;;;;22.30;56.00;;;21.56;55.10;99214.41;12248555;19;20544;-84
2023/08/03 06:08:51;;;;;;;;;;;22.40;56.10;;;21.67;55.28;99221.03;12248663;19;19918;-84
2023/08/03 06:12:52;;;;;;;;;;;22.50;56.20;;;21.74;55.17;99203.28;12250774;19;19918;-84
2023/08/03 06:16:54;;;;;;;;;;;22.60;56.30;;;21.84;55.03;99193.94;12243482;19;20318;-84
2023/08/03 06:20:55;;;;;;;;;;;22.80;56.00;;;21.85;55.00;99192.94;12249907;19;20616;-84
2023/08/03 06:24:58;;;;;;;;;;;22.90;55.90;;;22.16;54.81;99212.94;12251379;19;19923;-84
2023/08/03 06:29:01;;;;;;;;;;;23.00;55.50;;;22.14;55.17;99203.50;12261111;19;20502;-84
2023/08/03 06:33:03;;;;;;;;;;;23.10;55.10;;;22.33;55.00;99234.72;12268741;19;19957;-85
2023/08/03 06:37:04;;;;;;;;;;;23.20;55.10;;;22.37;54.83;99220.00;12267904;19;19977;-84
2023/08/03 06:41:06;;;;;;;;;;;23.30;55.00;;;22.50;54.92;99229.91;12270382;19;19911;-84
2023/08/03 06:45:07;;;;;;;;;;;23.40;54.90;;;22.55;54.94;99238.09;12266986;19;19922;-83
2023/08/03 06:49:09;;;;;;;;;;;23.40;54.40;;;22.59;54.92;99235.84;12265724;19;19911;-84
2023/08/03 06:53:11;;;;;;;;;;;23.50;54.30;;;22.43;54.56;99197.94;12263899;19;19919;-84
2023/08/03 06:57:12;;;;;;;;;;;23.60;54.50;;;22.80;54.65;99226.94;12262633;19;19918;-83
2023/08/03 07:01:14;;;;;;;;;;;23.70;54.10;;;22.87;54.88;99230.41;12266191;19;20408;-83
2023/08/03 07:05:16;;;;;;;;;;;23.80;54.00;;;22.99;54.80;99244.00;12263841;19;20000;-84
2023/08/03 07:09:17;;;;;;;;;;;23.90;54.10;;;23.06;54.91;99240.31;12264283;19;19982;-83
2023/08/03 07:13:19;;;;;;;;;;;24.00;54.20;;;23.18;54.53;99251.19;12263754;19;19927;-83
2023/08/03 07:17:21;;;;;;;;;;;24.10;54.00;;;23.30;54.62;99262.06;12261192;19;19915;-84
2023/08/03 07:21:22;;;;;;;;;;;24.20;53.90;;;23.33;54.49;99262.50;12258040;19;19936;-83
2023/08/03 07:25:23;;;;;;;;;;;24.20;52.60;;;23.44;54.85;99265.56;12253030;19;19930;-81
2023/08/03 07:29:25;;;;;;;;;;;24.40;52.50;;;23.41;54.37;99269.44;12256365;19;19935;-82
2023/08/03 07:33:26;;;;;;;;;;;24.40;52.70;;;23.57;54.35;99290.38;12258823;19;19919;-83
2023/08/03 07:37:28;;;;;;;;;;;24.50;51.60;;;23.60;54.47;99281.13;12252276;19;19911;-83
2023/08/03 07:41:29;;;;;;;;;;;24.50;52.90;;;23.59;54.29;99276.84;12258922;19;19930;-84
2023/08/03 07:45:31;;;;;;;;;;;24.60;52.20;;;23.72;54.61;99303.53;12255577;19;19927;-83
2023/08/03 07:49:32;;;;;;;;;;;24.70;52.00;;;23.73;54.06;99297.16;12258127;19;19930;-83
2023/08/03 07:53:34;;;;;;;;;;;24.60;51.10;;;23.61;54.18;99274.78;12260190;19;19915;-83
2023/08/03 07:57:36;;;;;;;;;;;24.60;52.40;;;23.75;54.38;99291.63;12258357;19;19930;-83
2023/08/03 08:01:37;;;;;;;;;;;24.70;51.50;;;23.77;54.30;99279.75;12259560;19;19927;-84
2023/08/03 08:05:39;;;;;;;;;;;24.80;52.40;;;23.96;54.51;99285.28;12260323;19;20545;-84
2023/08/03 08:09:40;;;;;;;;;;;24.80;52.00;;;24.04;54.30;99291.19;12259126;19;19919;-84
2023/08/03 08:13:43;;;;;;;;;;;25.00;52.50;;;24.04;54.43;99285.88;12255260;19;19918;-84
2023/08/03 08:17:44;;;;;;;;;;;25.00;52.00;;;24.08;53.83;99280.94;12257100;19;19922;-84
2023/08/03 08:21:45;;;;;;;;;;;25.10;51.30;;;24.21;54.42;99291.56;12258153;19;19927;-84
2023/08/03 08:25:47;;;;;;;;;;;25.10;51.50;;;24.37;53.93;99310.84;12254556;19;19922;-84
2023/08/03 08:29:48;;;;;;;;;;;25.20;51.60;;;24.29;53.82;99304.69;12258717;19;19923;-83
2023/08/03 08:33:50;;;;;;;;;;;25.30;50.80;;;24.38;53.85;99305.28;12255168;19;20286;-84
2023/08/03 08:37:52;;;;;;;;;;;25.40;50.60;;;24.47;54.06;99324.59;12255131;19;19915;-84
2023/08/03 08:41:57;;;;;;;;;;;25.40;50.80;;;24.57;53.88;99345.50;12253132;19;20485;-85
2023/08/03 08:45:59;;;;;;;;;;;25.50;51.40;;;24.63;53.58;99332.16;12254757;19;19915;-85
2023/08/03 08:50:00;;;;;;;;;;;25.50;50.90;;;24.73;53.56;99321.84;12252134;19;19911;-84
2023/08/03 08:54:02;;;;;;;;;;;25.60;50.10;;;24.89;53.89;99346.41;12252915;19;20334;-83
2023/08/03 08:58:03;;;;;;;;;;;25.80;51.50;;;25.05;53.38;99345.94;12254279;19;19936;-83
2023/08/03 09:02:05;;;;;;;;;;;25.90;51.00;;;25.20;53.79;99350.22;12257716;19;19914;-83
2023/08/03 09:06:06;;;;;;;;;;;26.10;51.20;;;25.30;53.50;99335.38;12256212;19;19918;-83
2023/08/03 09:10:09;;;;;;;;;;;26.20;49.50;;;25.42;53.68;99345.38;12254097;19;19945;-84
2023/08/03 09:14:14;;;;;;;;;;;26.30;50.70;;;25.51;53.56;99355.56;12254407;19;19907;-82
2023/08/03 09:18:15;;;;;;;;;;;26.40;50.10;;;25.55;53.47;99348.78;12247466;19;19926;-83
2023/08/03 09:22:20;;;;;;;;;;;26.50;50.50;;;25.68;53.31;99339.00;12251742;19;19923;-83
2023/08/03 09:26:23;;;;;;;;;;;26.60;50.50;;;25.67;53.11;99343.53;12251954;19;20282;-83
2023/08/03 09:30:25;;;;;;;;;;;26.70;49.10;;;25.80;52.90;99345.28;12252070;19;19919;-84
2023/08/03 09:34:44;;;;;;;;;;;26.70;47.50;;;25.86;52.94;99339.09;12251998;19;19918;-84
2023/08/03 09:38:46;;;;;;;;;;;26.80;50.20;;;25.96;53.05;99336.75;12251189;19;20344;-83
2023/08/03 09:42:48;;;;;;;;;;;26.90;49.30;;;25.99;52.81;99367.59;12252997;19;20261;-83
2023/08/03 09:46:50;;;;;;;;;;;27.00;49.80;;;25.98;52.72;99361.44;12251571;19;19937;-83
2023/08/03 09:50:54;;;;;;;;;;;27.00;49.40;;;25.94;52.46;99381.63;12251590;19;20353;-83
2023/08/03 09:55:05;;;;;;;;;;;26.90;49.30;;;25.90;52.86;99369.75;12249176;19;19919;-84
2023/08/03 09:59:08;;;;;;;;;;;26.90;49.60;;;25.71;52.69;99335.91;12250188;19;20083;-84
2023/08/03 10:03:11;;;;;;;;;;;26.90;50.00;;;25.96;52.59;99360.00;12255091;19;20350;-84
2023/08/03 10:07:16;;;;;;;;;;;26.90;48.20;;;25.96;52.33;99368.84;12260541;19;19919;-84
2023/08/03 10:11:20;;;;;;;;;;;26.90;48.70;;;25.91;52.07;99374.03;12263369;19;19946;-84
2023/08/03 10:15:22;;;;;;;;;;;26.90;49.00;;;25.72;52.55;99380.31;12260686;19;19922;-85
2023/08/03 10:19:23;;;;;;;;;;;26.80;49.80;;;25.70;52.18;99393.91;12268045;19;19903;-85
2023/08/03 10:23:25;;;;;;;;;;;26.70;50.10;;;25.55;52.33;99377.38;12268401;19;20324;-85
2023/08/03 10:27:27;;;;;;;;;;;26.60;50.20;;;25.46;52.35;99384.78;12265117;19;19939;-85
2023/08/03 10:31:28;;;;;;;;;;;26.50;50.50;;;25.51;52.56;99403.69;12270516;19;19919;-84
2023/08/03 10:35:40;;;;;;;;;;;26.40;50.80;;;25.51;52.24;99387.66;12269601;19;19916;-85
2023/08/03 10:39:56;;;;;;;;;;;26.40;51.10;;;25.54;52.05;99397.09;12272266;19;20245;-84
2023/08/03 10:44:12;;;;;;;;;;;26.40;50.90;;;25.50;52.49;99407.41;12264319;19;19910;-85
2023/08/03 10:48:30;;;;;;;;;;;26.30;50.00;;;25.46;51.99;99405.38;12266599;19;20151;-85
2023/08/03 10:52:32;;;;;;;;;;;26.30;50.30;;;25.41;51.95;99399.84;12269403;19;19919;-84
2023/08/03 10:56:33;;;;;;;;;;;26.30;50.90;;;25.24;52.43;99370.13;12267891;19;19922;-84
2023/08/03 11:00:34;;;;;;;;;;;26.20;50.60;;;25.44;52.47;99394.91;12270868;19;19930;-83
2023/08/03 11:04:36;;;;;;;;;;;26.20;50.60;;;25.43;52.02;99374.53;12272014;19;20249;-84
2023/08/03 11:08:37;;;;;;;;;;;26.20;50.60;;;25.52;52.03;99397.31;12255114;19;20011;-84
2023/08/03 11:12:40;;;;;;;;;;;26.30;51.10;;;25.70;52.02;99395.75;12263573;19;19928;-83
2023/08/03 11:16:42;;;;;;;;;;;26.40;51.40;;;25.79;52.04;99399.84;12266127;19;19922;-84
2023/08/03 11:20:43;;;;;;;;;;;26.60;51.20;;;25.94;52.12;99408.38;12268952;19;19951;-84
2023/08/03 11:24:45;;;;;;;;;;;26.70;50.60;;;25.97;51.99;99401.78;12270627;19;20239;-86
2023/08/03 11:28:47;;;;;;;;;;;26.80;50.60;;;26.01;51.83;99414.50;12269695;19;19923;-83
2023/08/03 11:32:56;;;;;;;;;;;26.80;50.70;;;26.04;52.11;99406.03;12266583;19;20565;-83
2023/08/03 11:36:58;;;;;;;;;;;26.80;49.60;;;26.07;51.65;99394.06;12264656;19;19933;-84
2023/08/03 11:41:00;;;;;;;;;;;26.90;47.40;;;26.10;51.65;99407.03;12269531;19;20307;-83
2023/08/03 11:45:01;;;;;;;;;;;27.00;49.20;;;26.17;52.13;99409.66;12262652;19;20306;-82
2023/08/03 11:49:03;;;;;;;;;;;27.00;50.00;;;26.18;51.95;99401.41;12255018;19;19919;-84
2023/08/03 11:53:04;;;;;;;;;;;27.00;49.70;;;26.25;51.95;99412.06;12255492;19;19919;-85
2023/08/03 12:01:27;;;;;;;;;;;27.10;48.80;;;26.13;51.54;99411.94;12259530;19;19982;-86
2023/08/03 12:05:45;;;;;;;;;;;27.00;48.90;;;26.12;51.67;99438.94;12263512;19;19930;-85
2023/08/03 12:09:50;;;;;;;;;;;27.00;48.60;;;26.00;51.36;99431.56;12265619;19;19914;-85
2023/08/03 12:13:52;;;;;;;;;;;26.90;49.10;;;25.94;51.13;99440.47;12265210;19;19921;-82
2023/08/03 12:17:53;;;;;;;;;;;26.90;50.10;;;25.69;51.70;99412.84;12261830;19;20248;-86
2023/08/03 12:21:55;;;;;;;;;;;26.80;50.40;;;25.70;51.30;99412.63;12263112;19;19911;-87
2023/08/03 12:25:56;;;;;;;;;;;26.60;50.20;;;25.77;51.45;99436.66;12260023;19;19962;-86
2023/08/03 12:29:58;;;;;;;;;;;26.60;49.90;;;25.59;51.40;99406.09;12262760;19;19931;-86
2023/08/03 12:33:59;;;;;;;;;;;26.50;48.20;;;25.65;51.05;99409.78;12264457;19;19914;-86
2023/08/03 12:38:01;;;;;;;;;;;26.50;48.40;;;25.68;51.00;99414.72;12262442;19;19919;-86
2023/08/03 12:42:03;;;;;;;;;;;26.50;49.10;;;25.65;51.17;99425.00;12264761;19;19922;-86
2023/08/03 12:46:05;;;;;;;;;;;26.50;46.50;;;25.59;50.90;99451.56;12261736;19;19919;-87
2023/08/03 12:50:06;;;;;;;;;;;26.50;48.70;;;25.52;51.15;99453.47;12262170;19;19922;-87
2023/08/03 12:54:08;;;;;;;;;;;26.40;49.50;;;25.50;50.85;99468.91;12256995;19;20322;-86
2023/08/03 12:58:11;;;;;;;;;;;26.40;49.30;;;25.41;51.06;99470.19;12256004;19;19915;-86
2023/08/03 13:02:12;;;;;;;;;;;26.30;49.00;;;25.32;51.17;99461.56;12266586;19;19926;-85
2023/08/03 13:06:13;;;;;;;;;;;26.20;48.60;;;25.30;50.85;99486.84;12257055;19;19919;-84
2023/08/03 13:10:15;;;;;;;;;;;26.20;49.00;;;25.20;50.88;99507.88;12255136;19;19945;-83
2023/08/03 13:14:16;;;;;;;;;;;26.10;49.30;;;25.14;50.96;99521.00;12254387;19;20269;-84
2023/08/03 13:18:18;;;;;;;;;;;26.00;49.60;;;25.08;50.83;99529.84;12248480;19;19915;-87
2023/08/03 13:22:19;;;;;;;;;;;25.90;49.80;;;24.99;50.84;99531.09;12248001;19;19971;-87
2023/08/03 13:26:20;;;;;;;;;;;25.80;49.20;;;24.84;51.20;99506.47;12244103;19;19950;-87
2023/08/03 13:30:22;;;;;;;;;;;25.70;47.50;;;24.64;50.80;99491.28;12246533;19;19914;-87
2023/08/03 13:34:23;;;;;;;;;;;25.70;48.90;;;24.90;50.99;99525.16;12247244;19;19943;-87
2023/08/03 13:38:26;;;;;;;;;;;25.70;48.50;;;24.88;51.16;99515.72;12262390;19;19962;-87
2023/08/03 13:42:27;;;;;;;;;;;25.60;48.10;;;24.86;51.19;99520.44;12273096;19;20528;-85
2023/08/03 13:46:28;;;;;;;;;;;25.60;49.40;;;25.01;50.94;99538.91;12275280;19;19930;-85
2023/08/03 13:50:30;;;;;;;;;;;25.70;49.70;;;24.99;50.71;99525.75;12281560;19;19921;-83
2023/08/03 13:54:31;;;;;;;;;;;25.70;49.30;;;25.08;50.87;99545.88;12276193;19;19972;-84
2023/08/03 13:58:33;;;;;;;;;;;25.80;49.50;;;25.09;50.86;99550.19;12277356;19;19919;-85
2023/08/03 14:02:34;;;;;;;;;;;25.80;48.90;;;25.02;50.73;99525.34;12280684;19;19946;-85
2023/08/03 14:06:36;;;;;;;;;;;25.80;49.10;;;25.04;50.51;99531.31;12273796;19;19919;-84
2023/08/03 14:10:38;;;;;;;;;;;25.80;48.50;;;25.08;50.66;99563.75;12272848;19;19922;-84
2023/08/03 14:14:39;;;;;;;;;;;25.90;49.00;;;25.01;50.73;99557.63;12274301;19;19915;-83
2023/08/03 14:18:41;;;;;;;;;;;25.90;49.60;;;25.03;50.58;99564.38;12263496;19;19930;-83
2023/08/03 14:22:42;;;;;;;;;;;25.80;49.50;;;24.98;50.82;99553.50;12268421;19;20356;-82
2023/08/03 14:26:43;;;;;;;;;;;25.80;49.40;;;24.94;50.61;99552.25;12266844;19;20311;-84
2023/08/03 14:30:45;;;;;;;;;;;25.70;49.40;;;25.00;51.13;99543.41;12270822;19;19919;-84
2023/08/03 14:34:46;;;;;;;;;;;25.70;49.10;;;25.14;51.03;99536.19;12268366;19;19911;-84
2023/08/03 14:38:47;;;;;;;;;;;25.80;49.30;;;25.27;50.58;99554.09;12270580;19;20291;-84
2023/08/03 14:42:49;;;;;;;;;;;25.90;48.70;;;25.31;50.72;99553.47;12267111;19;19918;-85
2023/08/03 14:46:50;;;;;;;;;;;26.00;48.70;;;25.36;50.42;99561.69;12256853;19;19952;-83
2023/08/03 14:50:52;;;;;;;;;;;26.10;49.00;;;25.43;50.89;99560.84;12255699;19;19911;-84
2023/08/03 14:54:53;;;;;;;;;;;26.20;48.90;;;25.47;50.18;99572.75;12255232;19;20335;-84
2023/08/03 14:58:54;;;;;;;;;;;26.20;46.70;;;25.44;50.13;99591.88;12259379;19;20401;-83
2023/08/03 15:02:56;;;;;;;;;;;26.30;47.90;;;25.48;50.34;99615.31;12263451;19;19922;-83
2023/08/03 15:06:57;;;;;;;;;;;26.30;48.00;;;25.36;50.14;99619.66;12256607;19;19923;-83
2023/08/03 15:10:58;;;;;;;;;;;26.20;47.00;;;25.30;50.12;99639.19;12259773;19;19915;-84
2023/08/03 15:15:00;;;;;;;;;;;26.20;48.10;;;25.20;50.15;99626.25;12254935;19;19952;-83
2023/08/03 15:19:02;;;;;;;;;;;26.20;48.90;;;25.08;50.31;99601.16;12250898;19;20375;-83
2023/08/03 15:23:03;;;;;;;;;;;26.10;49.50;;;25.13;50.38;99628.91;12256973;19;19923;-84
2023/08/03 15:27:05;;;;;;;;;;;26.00;49.70;;;25.12;50.31;99619.25;12253343;19;19956;-82
2023/08/03 15:31:07;;;;;;;;;;;25.90;49.70;;;25.07;50.33;99632.41;12256564;19;20337;-84
2023/08/03 15:35:09;;;;;;;;;;;25.90;49.90;;;25.09;50.22;99625.00;12256024;19;19942;-81
2023/08/03 15:39:10;;;;;;;;;;;25.80;50.10;;;25.08;50.49;99622.53;12260042;19;19937;-83
2023/08/03 15:43:12;;;;;;;;;;;25.80;50.30;;;25.02;50.57;99608.16;12251610;19;20337;-82
2023/08/03 15:47:13;;;;;;;;;;;25.80;50.30;;;25.03;50.19;99622.31;12254104;19;19940;-82
2023/08/03 15:51:15;;;;;;;;;;;25.80;50.30;;;25.09;50.68;99635.69;12250682;19;20360;-84
2023/08/03 15:55:16;;;;;;;;;;;25.80;50.20;;;25.03;50.57;99614.31;12259448;19;19917;-84
2023/08/03 15:59:18;;;;;;;;;;;25.80;50.10;;;25.06;50.62;99620.09;12256090;19;19918;-84
2023/08/03 16:03:19;;;;;;;;;;;25.80;49.60;;;25.05;50.40;99615.75;12261759;19;19926;-84
2023/08/03 16:07:21;;;;;;;;;;;25.80;49.40;;;25.09;50.66;99624.19;12255392;19;19915;-83
2023/08/03 16:11:22;;;;;;;;;;;25.80;49.20;;;25.14;50.21;99637.72;12255216;19;19914;-82
2023/08/03 16:15:23;;;;;;;;;;;25.80;49.90;;;25.16;50.17;99631.19;12254547;19;19931;-82
2023/08/03 16:19:25;;;;;;;;;;;25.90;49.70;;;25.07;50.60;99620.91;12254209;19;19918;-83
2023/08/03 16:23:26;;;;;;;;;;;25.90;49.80;;;24.98;50.52;99614.09;12253455;19;20337;-83
2023/08/03 16:27:28;;;;;;;;;;;25.90;49.60;;;25.16;50.58;99646.41;12252173;19;19946;-83
2023/08/03 16:31:32;;;;;;;;;;;25.90;49.60;;;25.09;50.12;99646.38;12259939;19;19918;-82
2023/08/03 16:35:36;;;;;;;;;;;25.80;49.60;;;25.11;50.47;99651.50;12252558;19;19918;-82
2023/08/03 16:39:38;;;;;;;;;;;25.80;48.20;;;25.06;50.48;99649.47;12255718;19;19978;-83
2023/08/03 16:43:40;;;;;;;;;;;25.80;48.70;;;25.02;50.07;99666.09;12256936;19;19923;-83
2023/08/03 16:47:42;;;;;;;;;;;25.80;49.20;;;24.87;50.09;99668.97;12253652;19;19922;-85
2023/08/03 16:51:43;;;;;;;;;;;25.70;48.80;;;24.91;50.42;99680.88;12255252;19;19911;-84
2023/08/03 16:55:45;;;;;;;;;;;25.70;49.40;;;24.56;50.06;99637.50;12254949;19;20284;-83
2023/08/03 16:59:46;;;;;;;;;;;25.60;49.50;;;24.74;50.30;99680.47;12250495;19;19918;-82
2023/08/03 17:03:47;;;;;;;;;;;25.60;49.60;;;24.73;50.09;99681.47;12261650;19;19922;-84
2023/08/03 17:07:50;;;;;;;;;;;25.50;49.80;;;24.78;50.08;99696.91;12258308;19;19910;-84
2023/08/03 17:11:52;;;;;;;;;;;25.50;49.90;;;24.75;50.13;99716.00;12257324;19;19914;-84
2023/08/03 17:15:53;;;;;;;;;;;25.40;49.90;;;24.67;50.24;99719.66;12253732;19;19911;-83
2023/08/03 17:19:55;;;;;;;;;;;25.40;49.90;;;24.66;49.99;99744.72;12254926;19;19923;-83
2023/08/03 17:23:56;;;;;;;;;;;25.40;50.00;;;24.47;50.39;99739.13;12249062;19;19915;-84
2023/08/03 17:27:58;;;;;;;;;;;25.30;50.10;;;24.48;50.14;99791.47;12245295;19;19911;-83
2023/08/03 17:32:00;;;;;;;;;;;25.20;50.40;;;24.26;49.99;99772.03;12245981;19;19951;-85
2023/08/03 17:36:22;;;;;;;;;;;25.10;50.60;;;24.26;50.17;99795.22;12242835;19;20230;-84
2023/08/03 17:40:23;;;;;;;;;;;25.00;50.60;;;24.08;50.58;99769.06;12244270;19;20406;-83
2023/08/03 17:44:24;;;;;;;;;;;24.90;50.80;;;24.07;50.55;99768.25;12244935;19;19971;-82
2023/08/03 17:48:26;;;;;;;;;;;24.70;50.90;;;24.02;50.16;99780.50;12244170;19;19927;-83
2023/08/03 17:52:30;;;;;;;;;;;24.70;51.20;;;23.99;50.20;99776.41;12248208;19;19910;-83
2023/08/03 17:56:31;;;;;;;;;;;24.60;51.30;;;24.05;50.39;99788.13;12243297;19;19930;-83
2023/08/03 18:00:33;;;;;;;;;;;24.60;51.50;;;24.02;50.54;99785.84;12247987;19;19942;-85
2023/08/03 18:04:37;;;;;;;;;;;24.60;51.60;;;23.92;50.31;99778.19;12244148;19;19915;-84
2023/08/03 18:08:39;;;;;;;;;;;24.60;51.60;;;23.97;50.63;99791.75;12244506;19;19990;-85
2023/08/03 18:12:42;;;;;;;;;;;24.60;51.70;;;23.98;50.55;99787.25;12243571;19;19915;-84
2023/08/03 18:16:44;;;;;;;;;;;24.50;51.70;;;24.02;50.50;99815.19;12241203;19;19918;-84
2023/08/03 18:20:45;;;;;;;;;;;24.60;51.80;;;23.97;50.63;99809.63;12243899;19;19918;-84
2023/08/03 18:24:48;;;;;;;;;;;24.60;51.80;;;23.98;50.50;99816.59;12250476;19;19919;-84